sensor_id;sensor_type;location;lat;lon;timestamp;temperature;humidity
66594;DHT22;53450;42.584;23.366;2023-08-20T00:01:57;20.26;60.38
66594;DHT22;53450;42.584;23.366;2023-08-20T00:04:26;20.28;60.28
66594;DHT22;53450;42.584;23.366;2023-08-20T00:06:53;20.25;60.46
66594;DHT22;53450;42.584;23.366;2023-08-20T00:09:18;20.36;60.14
66594;DHT22;53450;42.584;23.366;2023-08-20T00:11:47;20.31;60.24
66594;DHT22;53450;42.584;23.366;2023-08-20T00:14:16;20.34;60.26
66594;DHT22;53450;42.584;23.366;2023-08-20T00:16:43;20.34;60.13
66594;DHT22;53450;42.584;23.366;2023-08-20T00:19:09;20.36;60.02
66594;DHT22;53450;42.584;23.366;2023-08-20T00:21:40;20.31;60.27
66594;DHT22;53450;42.584;23.366;2023-08-20T00:24:10;20.31;60.35
66594;DHT22;53450;42.584;23.366;2023-08-20T00:26:36;20.26;60.65
66594;DHT22;53450;42.584;23.366;2023-08-20T00:29:01;20.25;60.64
66594;DHT22;53450;42.584;23.366;2023-08-20T00:31:30;20.20;61.06
66594;DHT22;53450;42.584;23.366;2023-08-20T00:34:21;20.13;60.86
66594;DHT22;53450;42.584;23.366;2023-08-20T00:36:47;20.13;61.04
66594;DHT22;53450;42.584;23.366;2023-08-20T00:39:13;20.15;60.91
66594;DHT22;53450;42.584;23.366;2023-08-20T00:42:05;20.10;61.25
66594;DHT22;53450;42.584;23.366;2023-08-20T00:44:57;20.13;61.30
66594;DHT22;53450;42.584;23.366;2023-08-20T00:47:23;20.05;61.66
66594;DHT22;53450;42.584;23.366;2023-08-20T00:49:48;20.03;61.92
66594;DHT22;53450;42.584;23.366;2023-08-20T00:52:16;19.87;62.19
66594;DHT22;53450;42.584;23.366;2023-08-20T00:54:45;19.86;62.39
66594;DHT22;53450;42.584;23.366;2023-08-20T00:57:15;19.86;62.46
66594;DHT22;53450;42.584;23.366;2023-08-20T00:59:43;19.87;62.56
66594;DHT22;53450;42.584;23.366;2023-08-20T01:02:09;19.88;63.07
66594;DHT22;53450;42.584;23.366;2023-08-20T01:04:35;19.80;63.74
66594;DHT22;53450;42.584;23.366;2023-08-20T01:13:18;19.45;64.32
66594;DHT22;53450;42.584;23.366;2023-08-20T01:15:44;19.40;64.97
66594;DHT22;53450;42.584;23.366;2023-08-20T01:18:13;19.33;65.48
66594;DHT22;53450;42.584;23.366;2023-08-20T01:20:47;19.22;65.72
66594;DHT22;53450;42.584;23.366;2023-08-20T01:28:31;18.95;67.11
66594;DHT22;53450;42.584;23.366;2023-08-20T01:31:00;18.89;67.33
66594;DHT22;53450;42.584;23.366;2023-08-20T01:33:26;18.81;67.70
66594;DHT22;53450;42.584;23.366;2023-08-20T01:35:57;18.74;67.96
66594;DHT22;53450;42.584;23.366;2023-08-20T01:38:23;18.68;68.07
66594;DHT22;53450;42.584;23.366;2023-08-20T01:40:51;18.63;68.38
66594;DHT22;53450;42.584;23.366;2023-08-20T01:43:17;18.54;68.50
66594;DHT22;53450;42.584;23.366;2023-08-20T01:45:43;18.44;68.73
66594;DHT22;53450;42.584;23.366;2023-08-20T01:48:08;18.47;69.06
66594;DHT22;53450;42.584;23.366;2023-08-20T01:50:35;18.51;68.96
66594;DHT22;53450;42.584;23.366;2023-08-20T01:53:01;18.47;69.11
66594;DHT22;53450;42.584;23.366;2023-08-20T01:55:28;18.41;69.40
66594;DHT22;53450;42.584;23.366;2023-08-20T01:57:54;18.33;69.56
66594;DHT22;53450;42.584;23.366;2023-08-20T02:00:20;18.39;69.59
66594;DHT22;53450;42.584;23.366;2023-08-20T02:02:45;18.40;69.70
66594;DHT22;53450;42.584;23.366;2023-08-20T02:05:11;18.36;70.19
66594;DHT22;53450;42.584;23.366;2023-08-20T02:07:37;18.26;70.42
66594;DHT22;53450;42.584;23.366;2023-08-20T02:10:04;18.20;70.51
66594;DHT22;53450;42.584;23.366;2023-08-20T02:12:29;18.14;70.87
66594;DHT22;53450;42.584;23.366;2023-08-20T02:14:57;18.10;71.36
66594;DHT22;53450;42.584;23.366;2023-08-20T02:17:24;18.09;71.35
66594;DHT22;53450;42.584;23.366;2023-08-20T02:19:49;18.03;71.95
66594;DHT22;53450;42.584;23.366;2023-08-20T02:22:15;17.99;71.83
66594;DHT22;53450;42.584;23.366;2023-08-20T02:24:41;17.99;72.00
66594;DHT22;53450;42.584;23.366;2023-08-20T02:27:08;17.89;72.14
66594;DHT22;53450;42.584;23.366;2023-08-20T02:29:34;17.93;72.25
66594;DHT22;53450;42.584;23.366;2023-08-20T02:32:00;18.06;71.84
66594;DHT22;53450;42.584;23.366;2023-08-20T02:34:25;18.06;71.83
66594;DHT22;53450;42.584;23.366;2023-08-20T02:36:51;18.10;71.88
66594;DHT22;53450;42.584;23.366;2023-08-20T02:39:17;18.09;71.70
66594;DHT22;53450;42.584;23.366;2023-08-20T02:41:42;18.09;71.75
66594;DHT22;53450;42.584;23.366;2023-08-20T02:44:33;18.12;71.77
66594;DHT22;53450;42.584;23.366;2023-08-20T02:47:25;18.12;71.73
66594;DHT22;53450;42.584;23.366;2023-08-20T02:49:51;18.10;71.76
66594;DHT22;53450;42.584;23.366;2023-08-20T02:52:23;18.14;70.92
66594;DHT22;53450;42.584;23.366;2023-08-20T02:54:49;18.16;71.07
66594;DHT22;53450;42.584;23.366;2023-08-20T02:57:15;18.22;71.16
66594;DHT22;53450;42.584;23.366;2023-08-20T02:59:47;18.25;71.05
66594;DHT22;53450;42.584;23.366;2023-08-20T03:02:12;18.13;71.32
66594;DHT22;53450;42.584;23.366;2023-08-20T03:04:38;18.17;71.12
66594;DHT22;53450;42.584;23.366;2023-08-20T03:07:03;18.27;70.95
66594;DHT22;53450;42.584;23.366;2023-08-20T03:09:29;18.29;70.94
66594;DHT22;53450;42.584;23.366;2023-08-20T03:11:55;18.27;71.07
66594;DHT22;53450;42.584;23.366;2023-08-20T03:14:21;18.29;71.09
66594;DHT22;53450;42.584;23.366;2023-08-20T03:16:49;18.32;71.07
66594;DHT22;53450;42.584;23.366;2023-08-20T03:19:15;18.40;70.96
66594;DHT22;53450;42.584;23.366;2023-08-20T03:21:44;18.47;70.89
66594;DHT22;53450;42.584;23.366;2023-08-20T03:24:09;18.49;70.80
66594;DHT22;53450;42.584;23.366;2023-08-20T03:26:35;18.56;70.81
66594;DHT22;53450;42.584;23.366;2023-08-20T03:29:01;18.63;70.61
66594;DHT22;53450;42.584;23.366;2023-08-20T03:31:26;18.77;70.36
66594;DHT22;53450;42.584;23.366;2023-08-20T03:33:52;18.71;70.63
66594;DHT22;53450;42.584;23.366;2023-08-20T03:36:18;18.71;70.63
66594;DHT22;53450;42.584;23.366;2023-08-20T03:38:43;18.71;70.66
66594;DHT22;53450;42.584;23.366;2023-08-20T03:41:09;18.79;70.48
66594;DHT22;53450;42.584;23.366;2023-08-20T03:43:35;18.87;70.40
66594;DHT22;53450;42.584;23.366;2023-08-20T03:46:01;18.89;70.09
66594;DHT22;53450;42.584;23.366;2023-08-20T03:48:28;18.92;69.81
66594;DHT22;53450;42.584;23.366;2023-08-20T03:50:54;18.95;69.59
66594;DHT22;53450;42.584;23.366;2023-08-20T03:53:19;19.05;69.22
66594;DHT22;53450;42.584;23.366;2023-08-20T03:55:49;19.04;69.34
66594;DHT22;53450;42.584;23.366;2023-08-20T03:58:17;19.23;68.98
66594;DHT22;53450;42.584;23.366;2023-08-20T04:00:43;19.42;68.20
66594;DHT22;53450;42.584;23.366;2023-08-20T04:03:09;19.40;68.17
66594;DHT22;53450;42.584;23.366;2023-08-20T04:05:38;19.36;67.39
66594;DHT22;53450;42.584;23.366;2023-08-20T04:08:05;19.39;67.59
66594;DHT22;53450;42.584;23.366;2023-08-20T04:10:31;19.62;66.72
66594;DHT22;53450;42.584;23.366;2023-08-20T04:12:58;19.55;66.55
66594;DHT22;53450;42.584;23.366;2023-08-20T04:15:24;19.47;67.00
66594;DHT22;53450;42.584;23.366;2023-08-20T04:17:50;19.43;66.87
66594;DHT22;53450;42.584;23.366;2023-08-20T04:20:15;19.43;66.67
66594;DHT22;53450;42.584;23.366;2023-08-20T04:22:42;19.43;66.45
66594;DHT22;53450;42.584;23.366;2023-08-20T04:25:08;19.45;66.23
66594;DHT22;53450;42.584;23.366;2023-08-20T04:27:34;19.50;66.02
66594;DHT22;53450;42.584;23.366;2023-08-20T04:29:59;19.56;65.49
66594;DHT22;53450;42.584;23.366;2023-08-20T04:32:28;19.59;65.41
66594;DHT22;53450;42.584;23.366;2023-08-20T04:34:54;19.62;65.09
66594;DHT22;53450;42.584;23.366;2023-08-20T04:37:21;19.59;65.09
66594;DHT22;53450;42.584;23.366;2023-08-20T04:39:47;19.62;64.91
66594;DHT22;53450;42.584;23.366;2023-08-20T04:42:13;19.67;64.51
66594;DHT22;53450;42.584;23.366;2023-08-20T04:44:39;19.66;64.78
66594;DHT22;53450;42.584;23.366;2023-08-20T04:47:31;19.73;64.90
66594;DHT22;53450;42.584;23.366;2023-08-20T04:49:59;19.80;63.95
66594;DHT22;53450;42.584;23.366;2023-08-20T04:52:28;19.95;64.03
66594;DHT22;53450;42.584;23.366;2023-08-20T04:54:54;20.08;63.46
66594;DHT22;53450;42.584;23.366;2023-08-20T04:57:21;20.21;62.86
66594;DHT22;53450;42.584;23.366;2023-08-20T04:59:46;20.29;62.99
66594;DHT22;53450;42.584;23.366;2023-08-20T05:02:26;20.41;63.14
66594;DHT22;53450;42.584;23.366;2023-08-20T05:04:56;20.51;63.23
66594;DHT22;53450;42.584;23.366;2023-08-20T05:07:22;20.62;62.25
66594;DHT22;53450;42.584;23.366;2023-08-20T05:09:49;20.71;61.76
66594;DHT22;53450;42.584;23.366;2023-08-20T05:12:15;20.76;62.38
66594;DHT22;53450;42.584;23.366;2023-08-20T05:14:40;20.83;61.57
66594;DHT22;53450;42.584;23.366;2023-08-20T05:17:06;20.86;62.03
66594;DHT22;53450;42.584;23.366;2023-08-20T05:19:32;20.90;61.69
66594;DHT22;53450;42.584;23.366;2023-08-20T05:21:58;20.99;62.04
66594;DHT22;53450;42.584;23.366;2023-08-20T05:24:50;21.04;61.98
66594;DHT22;53450;42.584;23.366;2023-08-20T05:27:41;21.14;61.63
66594;DHT22;53450;42.584;23.366;2023-08-20T05:30:07;21.24;61.21
66594;DHT22;53450;42.584;23.366;2023-08-20T05:32:34;21.38;61.11
66594;DHT22;53450;42.584;23.366;2023-08-20T05:35:00;21.55;60.65
66594;DHT22;53450;42.584;23.366;2023-08-20T05:37:27;21.71;60.17
66594;DHT22;53450;42.584;23.366;2023-08-20T05:40:18;21.81;58.53
66594;DHT22;53450;42.584;23.366;2023-08-20T05:42:44;22.00;58.72
66594;DHT22;53450;42.584;23.366;2023-08-20T05:45:09;22.26;57.34
66594;DHT22;53450;42.584;23.366;2023-08-20T05:47:35;22.36;55.26
66594;DHT22;53450;42.584;23.366;2023-08-20T05:50:02;22.49;54.66
66594;DHT22;53450;42.584;23.366;2023-08-20T05:52:28;22.67;54.27
66594;DHT22;53450;42.584;23.366;2023-08-20T05:54:53;22.65;54.39
66594;DHT22;53450;42.584;23.366;2023-08-20T05:57:20;22.56;54.65
66594;DHT22;53450;42.584;23.366;2023-08-20T05:59:45;22.56;54.80
66594;DHT22;53450;42.584;23.366;2023-08-20T06:02:16;22.65;54.79
66594;DHT22;53450;42.584;23.366;2023-08-20T06:04:46;22.87;54.96
66594;DHT22;53450;42.584;23.366;2023-08-20T06:07:11;22.98;55.10
66594;DHT22;53450;42.584;23.366;2023-08-20T06:09:37;22.92;55.01
66594;DHT22;53450;42.584;23.366;2023-08-20T06:12:03;22.94;54.34
66594;DHT22;53450;42.584;23.366;2023-08-20T06:14:32;23.05;54.76
66594;DHT22;53450;42.584;23.366;2023-08-20T06:16:57;23.04;54.44
66594;DHT22;53450;42.584;23.366;2023-08-20T06:19:24;23.02;54.42
66594;DHT22;53450;42.584;23.366;2023-08-20T06:21:49;23.02;54.33
66594;DHT22;53450;42.584;23.366;2023-08-20T06:24:17;23.05;54.51
66594;DHT22;53450;42.584;23.366;2023-08-20T06:26:45;22.97;54.88
66594;DHT22;53450;42.584;23.366;2023-08-20T06:29:11;23.09;55.06
66594;DHT22;53450;42.584;23.366;2023-08-20T06:31:36;23.18;54.53
66594;DHT22;53450;42.584;23.366;2023-08-20T06:34:02;23.26;54.36
66594;DHT22;53450;42.584;23.366;2023-08-20T06:36:28;23.36;55.09
66594;DHT22;53450;42.584;23.366;2023-08-20T06:38:53;23.38;54.13
66594;DHT22;53450;42.584;23.366;2023-08-20T06:41:19;23.32;54.05
66594;DHT22;53450;42.584;23.366;2023-08-20T06:43:45;23.42;53.93
66594;DHT22;53450;42.584;23.366;2023-08-20T06:46:10;23.52;53.96
66594;DHT22;53450;42.584;23.366;2023-08-20T06:48:36;23.53;54.02
66594;DHT22;53450;42.584;23.366;2023-08-20T06:51:11;23.62;54.67
66594;DHT22;53450;42.584;23.366;2023-08-20T06:53:37;23.56;53.98
66594;DHT22;53450;42.584;23.366;2023-08-20T06:56:03;23.55;53.99
66594;DHT22;53450;42.584;23.366;2023-08-20T06:58:29;23.63;54.94
66594;DHT22;53450;42.584;23.366;2023-08-20T07:00:55;23.76;53.52
66594;DHT22;53450;42.584;23.366;2023-08-20T07:03:20;23.74;54.19
66594;DHT22;53450;42.584;23.366;2023-08-20T07:05:46;23.67;53.64
66594;DHT22;53450;42.584;23.366;2023-08-20T07:08:12;23.66;53.67
66594;DHT22;53450;42.584;23.366;2023-08-20T07:10:38;23.78;54.02
66594;DHT22;53450;42.584;23.366;2023-08-20T07:13:06;23.96;54.24
66594;DHT22;53450;42.584;23.366;2023-08-20T07:15:32;24.00;52.04
66594;DHT22;53450;42.584;23.366;2023-08-20T07:17:58;23.88;53.12
66594;DHT22;53450;42.584;23.366;2023-08-20T07:20:23;23.83;54.04
66594;DHT22;53450;42.584;23.366;2023-08-20T07:22:49;23.96;53.21
66594;DHT22;53450;42.584;23.366;2023-08-20T07:25:15;23.98;52.67
66594;DHT22;53450;42.584;23.366;2023-08-20T07:27:48;24.10;51.67
66594;DHT22;53450;42.584;23.366;2023-08-20T07:30:16;24.13;50.76
66594;DHT22;53450;42.584;23.366;2023-08-20T07:32:42;24.25;52.23
66594;DHT22;53450;42.584;23.366;2023-08-20T07:35:07;24.52;51.70
66594;DHT22;53450;42.584;23.366;2023-08-20T07:37:37;24.56;52.09
66594;DHT22;53450;42.584;23.366;2023-08-20T07:40:27;24.77;51.00
66594;DHT22;53450;42.584;23.366;2023-08-20T07:42:58;24.71;51.59
66594;DHT22;53450;42.584;23.366;2023-08-20T07:45:24;24.86;51.43
66594;DHT22;53450;42.584;23.366;2023-08-20T07:47:59;24.66;50.48
66594;DHT22;53450;42.584;23.366;2023-08-20T07:50:24;24.71;51.03
66594;DHT22;53450;42.584;23.366;2023-08-20T07:52:50;24.76;51.24
66594;DHT22;53450;42.584;23.366;2023-08-20T07:55:19;24.77;50.20
66594;DHT22;53450;42.584;23.366;2023-08-20T07:57:44;24.71;49.47
66594;DHT22;53450;42.584;23.366;2023-08-20T08:00:11;24.85;50.11
66594;DHT22;53450;42.584;23.366;2023-08-20T08:02:39;24.89;49.89
66594;DHT22;53450;42.584;23.366;2023-08-20T08:05:05;25.00;49.22
66594;DHT22;53450;42.584;23.366;2023-08-20T08:07:31;25.20;49.72
66594;DHT22;53450;42.584;23.366;2023-08-20T08:09:57;25.13;47.95
66594;DHT22;53450;42.584;23.366;2023-08-20T08:12:22;24.99;48.86
66594;DHT22;53450;42.584;23.366;2023-08-20T08:14:48;24.92;48.63
66594;DHT22;53450;42.584;23.366;2023-08-20T08:17:14;24.86;48.14
66594;DHT22;53450;42.584;23.366;2023-08-20T08:19:42;24.71;47.31
66594;DHT22;53450;42.584;23.366;2023-08-20T08:22:07;24.80;47.49
66594;DHT22;53450;42.584;23.366;2023-08-20T08:24:35;24.97;47.56
66594;DHT22;53450;42.584;23.366;2023-08-20T08:27:01;25.24;48.81
66594;DHT22;53450;42.584;23.366;2023-08-20T08:29:27;25.12;46.29
66594;DHT22;53450;42.584;23.366;2023-08-20T08:31:54;25.22;47.01
66594;DHT22;53450;42.584;23.366;2023-08-20T08:34:22;25.26;46.05
66594;DHT22;53450;42.584;23.366;2023-08-20T08:36:48;25.43;45.41
66594;DHT22;53450;42.584;23.366;2023-08-20T08:39:16;25.33;44.83
66594;DHT22;53450;42.584;23.366;2023-08-20T08:41:42;25.30;44.57
66594;DHT22;53450;42.584;23.366;2023-08-20T08:44:16;25.34;45.17
66594;DHT22;53450;42.584;23.366;2023-08-20T08:46:47;25.19;44.07
66594;DHT22;53450;42.584;23.366;2023-08-20T08:49:15;25.37;44.90
66594;DHT22;53450;42.584;23.366;2023-08-20T08:51:42;25.51;44.77
66594;DHT22;53450;42.584;23.366;2023-08-20T08:54:13;25.65;44.62
66594;DHT22;53450;42.584;23.366;2023-08-20T08:56:39;25.81;44.86
66594;DHT22;53450;42.584;23.366;2023-08-20T08:59:05;25.95;44.97
66594;DHT22;53450;42.584;23.366;2023-08-20T09:01:31;26.06;44.43
66594;DHT22;53450;42.584;23.366;2023-08-20T09:03:57;26.15;44.07
66594;DHT22;53450;42.584;23.366;2023-08-20T09:06:22;26.09;41.65
66594;DHT22;53450;42.584;23.366;2023-08-20T09:09:04;26.10;39.43
66594;DHT22;53450;42.584;23.366;2023-08-20T09:11:35;26.26;42.15
66594;DHT22;53450;42.584;23.366;2023-08-20T09:14:00;26.19;41.16
66594;DHT22;53450;42.584;23.366;2023-08-20T09:16:29;26.32;42.01
66594;DHT22;53450;42.584;23.366;2023-08-20T09:18:59;26.47;40.16
66594;DHT22;53450;42.584;23.366;2023-08-20T09:21:28;26.60;40.98
66594;DHT22;53450;42.584;23.366;2023-08-20T09:24:00;26.51;40.75
66594;DHT22;53450;42.584;23.366;2023-08-20T09:26:28;26.64;40.01
66594;DHT22;53450;42.584;23.366;2023-08-20T09:28:55;26.63;40.94
66594;DHT22;53450;42.584;23.366;2023-08-20T09:31:37;26.76;41.21
66594;DHT22;53450;42.584;23.366;2023-08-20T09:34:03;26.90;40.28
66594;DHT22;53450;42.584;23.366;2023-08-20T09:36:34;26.83;41.33
66594;DHT22;53450;42.584;23.366;2023-08-20T09:39:02;26.98;40.80
66594;DHT22;53450;42.584;23.366;2023-08-20T09:41:28;26.95;39.21
66594;DHT22;53450;42.584;23.366;2023-08-20T09:43:58;26.81;40.56
66594;DHT22;53450;42.584;23.366;2023-08-20T09:46:26;26.92;40.09
66594;DHT22;53450;42.584;23.366;2023-08-20T09:48:55;26.99;39.31
66594;DHT22;53450;42.584;23.366;2023-08-20T09:51:28;26.97;39.78
66594;DHT22;53450;42.584;23.366;2023-08-20T09:54:06;27.09;39.15
66594;DHT22;53450;42.584;23.366;2023-08-20T09:56:38;27.07;39.28
66594;DHT22;53450;42.584;23.366;2023-08-20T09:59:04;27.29;39.74
66594;DHT22;53450;42.584;23.366;2023-08-20T10:01:31;27.21;39.53
66594;DHT22;53450;42.584;23.366;2023-08-20T10:03:57;27.15;40.58
66594;DHT22;53450;42.584;23.366;2023-08-20T10:06:23;27.34;39.61
66594;DHT22;53450;42.584;23.366;2023-08-20T10:08:51;27.53;38.88
66594;DHT22;53450;42.584;23.366;2023-08-20T10:11:21;27.67;39.69
66594;DHT22;53450;42.584;23.366;2023-08-20T10:13:47;27.66;38.31
66594;DHT22;53450;42.584;23.366;2023-08-20T10:16:13;27.62;38.50
66594;DHT22;53450;42.584;23.366;2023-08-20T10:18:39;27.55;38.55
66594;DHT22;53450;42.584;23.366;2023-08-20T10:21:05;27.57;38.80
66594;DHT22;53450;42.584;23.366;2023-08-20T10:23:40;27.67;36.82
66594;DHT22;53450;42.584;23.366;2023-08-20T10:26:09;27.73;39.05
66594;DHT22;53450;42.584;23.366;2023-08-20T10:28:40;27.84;38.31
66594;DHT22;53450;42.584;23.366;2023-08-20T10:31:07;27.80;37.99
66594;DHT22;53450;42.584;23.366;2023-08-20T10:36:17;27.92;38.14
66594;DHT22;53450;42.584;23.366;2023-08-20T10:38:50;27.70;38.32
66594;DHT22;53450;42.584;23.366;2023-08-20T10:41:28;27.92;38.56
66594;DHT22;53450;42.584;23.366;2023-08-20T10:43:58;27.98;38.65
66594;DHT22;53450;42.584;23.366;2023-08-20T10:46:29;28.13;38.43
66594;DHT22;53450;42.584;23.366;2023-08-20T10:49:02;28.18;37.57
66594;DHT22;53450;42.584;23.366;2023-08-20T10:51:38;28.10;38.41
66594;DHT22;53450;42.584;23.366;2023-08-20T10:54:13;28.00;39.63
66594;DHT22;53450;42.584;23.366;2023-08-20T10:56:46;28.03;38.83
66594;DHT22;53450;42.584;23.366;2023-08-20T10:59:44;28.25;38.86
66594;DHT22;53450;42.584;23.366;2023-08-20T11:02:42;28.55;38.25
66594;DHT22;53450;42.584;23.366;2023-08-20T11:05:19;28.72;38.36
66594;DHT22;53450;42.584;23.366;2023-08-20T11:07:47;28.43;38.43
66594;DHT22;53450;42.584;23.366;2023-08-20T11:10:17;28.65;37.96
66594;DHT22;53450;42.584;23.366;2023-08-20T11:12:47;28.59;37.75
66594;DHT22;53450;42.584;23.366;2023-08-20T11:15:12;28.78;37.79
66594;DHT22;53450;42.584;23.366;2023-08-20T11:17:47;28.66;39.14
66594;DHT22;53450;42.584;23.366;2023-08-20T11:20:16;28.75;37.15
66594;DHT22;53450;42.584;23.366;2023-08-20T11:22:41;28.79;38.22
66594;DHT22;53450;42.584;23.366;2023-08-20T11:25:11;28.92;37.79
66594;DHT22;53450;42.584;23.366;2023-08-20T11:27:41;28.98;37.66
66594;DHT22;53450;42.584;23.366;2023-08-20T11:30:08;28.95;37.17
66594;DHT22;53450;42.584;23.366;2023-08-20T11:32:35;29.13;36.95
66594;DHT22;53450;42.584;23.366;2023-08-20T11:35:04;29.12;37.08
66594;DHT22;53450;42.584;23.366;2023-08-20T11:37:30;28.86;36.68
66594;DHT22;53450;42.584;23.366;2023-08-20T11:39:56;29.06;37.38
66594;DHT22;53450;42.584;23.366;2023-08-20T11:42:22;29.27;36.72
66594;DHT22;53450;42.584;23.366;2023-08-20T11:44:48;29.31;36.55
66594;DHT22;53450;42.584;23.366;2023-08-20T11:47:16;29.47;36.77
66594;DHT22;53450;42.584;23.366;2023-08-20T11:49:45;29.46;36.80
66594;DHT22;53450;42.584;23.366;2023-08-20T11:52:11;29.43;37.53
66594;DHT22;53450;42.584;23.366;2023-08-20T11:54:38;29.53;36.93
66594;DHT22;53450;42.584;23.366;2023-08-20T11:57:05;29.22;36.59
66594;DHT22;53450;42.584;23.366;2023-08-20T11:59:32;29.46;35.91
66594;DHT22;53450;42.584;23.366;2023-08-20T12:02:02;29.55;35.75
66594;DHT22;53450;42.584;23.366;2023-08-20T12:04:31;29.65;34.95
66594;DHT22;53450;42.584;23.366;2023-08-20T12:07:05;29.68;35.66
66594;DHT22;53450;42.584;23.366;2023-08-20T12:09:57;29.89;36.14
66594;DHT22;53450;42.584;23.366;2023-08-20T12:12:26;29.78;35.38
66594;DHT22;53450;42.584;23.366;2023-08-20T12:14:51;29.64;35.95
66594;DHT22;53450;42.584;23.366;2023-08-20T12:17:18;29.68;35.67
66594;DHT22;53450;42.584;23.366;2023-08-20T12:19:51;29.74;35.49
66594;DHT22;53450;42.584;23.366;2023-08-20T12:22:17;29.93;34.84
66594;DHT22;53450;42.584;23.366;2023-08-20T12:24:45;29.93;34.69
66594;DHT22;53450;42.584;23.366;2023-08-20T12:27:13;30.04;34.66
66594;DHT22;53450;42.584;23.366;2023-08-20T12:29:40;30.01;35.44
66594;DHT22;53450;42.584;23.366;2023-08-20T12:32:14;29.88;36.13
66594;DHT22;53450;42.584;23.366;2023-08-20T12:34:40;29.77;36.35
66594;DHT22;53450;42.584;23.366;2023-08-20T12:37:08;29.53;35.68
66594;DHT22;53450;42.584;23.366;2023-08-20T12:39:36;29.65;35.86
66594;DHT22;53450;42.584;23.366;2023-08-20T12:42:26;29.62;35.98
66594;DHT22;53450;42.584;23.366;2023-08-20T12:45:17;29.60;36.77
66594;DHT22;53450;42.584;23.366;2023-08-20T12:47:46;29.53;37.13
66594;DHT22;53450;42.584;23.366;2023-08-20T12:50:12;29.81;35.85
66594;DHT22;53450;42.584;23.366;2023-08-20T12:52:40;29.91;35.64
66594;DHT22;53450;42.584;23.366;2023-08-20T12:55:08;29.98;35.67
66594;DHT22;53450;42.584;23.366;2023-08-20T12:57:34;30.09;35.90
66594;DHT22;53450;42.584;23.366;2023-08-20T13:00:00;30.11;35.67
66594;DHT22;53450;42.584;23.366;2023-08-20T13:02:26;30.15;36.16
66594;DHT22;53450;42.584;23.366;2023-08-20T13:04:52;30.16;36.53
66594;DHT22;53450;42.584;23.366;2023-08-20T13:07:18;30.15;35.74
66594;DHT22;53450;42.584;23.366;2023-08-20T13:09:44;30.26;35.51
66594;DHT22;53450;42.584;23.366;2023-08-20T13:12:14;30.28;34.95
66594;DHT22;53450;42.584;23.366;2023-08-20T13:14:44;30.20;35.33
66594;DHT22;53450;42.584;23.366;2023-08-20T13:17:10;30.09;35.44
66594;DHT22;53450;42.584;23.366;2023-08-20T13:19:43;30.08;35.71
66594;DHT22;53450;42.584;23.366;2023-08-20T13:22:08;29.88;35.24
66594;DHT22;53450;42.584;23.366;2023-08-20T13:24:37;30.08;35.71
66594;DHT22;53450;42.584;23.366;2023-08-20T13:27:03;30.04;35.62
66594;DHT22;53450;42.584;23.366;2023-08-20T13:29:36;30.01;36.12
66594;DHT22;53450;42.584;23.366;2023-08-20T13:32:02;30.13;36.22
66594;DHT22;53450;42.584;23.366;2023-08-20T13:34:28;30.16;35.38
66594;DHT22;53450;42.584;23.366;2023-08-20T13:36:53;30.37;35.05
66594;DHT22;53450;42.584;23.366;2023-08-20T13:39:24;30.63;35.23
66594;DHT22;53450;42.584;23.366;2023-08-20T13:41:51;30.56;34.74
66594;DHT22;53450;42.584;23.366;2023-08-20T13:44:19;30.40;34.72
66594;DHT22;53450;42.584;23.366;2023-08-20T13:46:45;30.49;35.58
66594;DHT22;53450;42.584;23.366;2023-08-20T13:49:10;30.37;35.94
66594;DHT22;53450;42.584;23.366;2023-08-20T13:51:36;30.52;35.36
66594;DHT22;53450;42.584;23.366;2023-08-20T13:54:05;30.59;35.65
66594;DHT22;53450;42.584;23.366;2023-08-20T13:56:33;30.56;35.27
66594;DHT22;53450;42.584;23.366;2023-08-20T13:58:59;30.64;35.27
66594;DHT22;53450;42.584;23.366;2023-08-20T14:01:28;30.67;35.32
66594;DHT22;53450;42.584;23.366;2023-08-20T14:03:56;30.78;35.15
66594;DHT22;53450;42.584;23.366;2023-08-20T14:06:28;30.63;34.64
66594;DHT22;53450;42.584;23.366;2023-08-20T14:08:54;30.73;34.41
66594;DHT22;53450;42.584;23.366;2023-08-20T14:11:22;30.60;35.30
66594;DHT22;53450;42.584;23.366;2023-08-20T14:13:48;30.44;35.34
66594;DHT22;53450;42.584;23.366;2023-08-20T14:16:14;30.46;35.94
66594;DHT22;53450;42.584;23.366;2023-08-20T14:18:42;30.30;34.92
66594;DHT22;53450;42.584;23.366;2023-08-20T14:21:08;30.02;35.30
66594;DHT22;53450;42.584;23.366;2023-08-20T14:23:34;30.15;35.37
66594;DHT22;53450;42.584;23.366;2023-08-20T14:26:01;29.99;34.83
66594;DHT22;53450;42.584;23.366;2023-08-20T14:28:33;30.16;35.36
66594;DHT22;53450;42.584;23.366;2023-08-20T14:31:02;30.29;35.49
66594;DHT22;53450;42.584;23.366;2023-08-20T14:33:31;30.26;34.99
66594;DHT22;53450;42.584;23.366;2023-08-20T14:35:57;30.19;35.38
66594;DHT22;53450;42.584;23.366;2023-08-20T14:38:31;30.29;35.31
66594;DHT22;53450;42.584;23.366;2023-08-20T14:41:00;30.26;35.08
66594;DHT22;53450;42.584;23.366;2023-08-20T14:43:29;30.15;35.31
66594;DHT22;53450;42.584;23.366;2023-08-20T14:45:56;30.22;35.44
66594;DHT22;53450;42.584;23.366;2023-08-20T14:48:24;30.11;35.76
66594;DHT22;53450;42.584;23.366;2023-08-20T14:50:52;30.19;35.18
66594;DHT22;53450;42.584;23.366;2023-08-20T14:53:18;30.23;34.92
66594;DHT22;53450;42.584;23.366;2023-08-20T14:56:09;30.16;34.59
66594;DHT22;53450;42.584;23.366;2023-08-20T14:58:37;29.97;34.44
66594;DHT22;53450;42.584;23.366;2023-08-20T15:01:02;29.86;35.05
66594;DHT22;53450;42.584;23.366;2023-08-20T15:03:29;29.68;34.54
66594;DHT22;53450;42.584;23.366;2023-08-20T15:05:57;29.67;34.90
66594;DHT22;53450;42.584;23.366;2023-08-20T15:08:23;29.47;35.40
66594;DHT22;53450;42.584;23.366;2023-08-20T15:10:59;29.38;35.21
66594;DHT22;53450;42.584;23.366;2023-08-20T15:13:30;29.38;35.77
66594;DHT22;53450;42.584;23.366;2023-08-20T15:16:03;29.60;35.61
66594;DHT22;53450;42.584;23.366;2023-08-20T15:18:29;29.82;35.54
66594;DHT22;53450;42.584;23.366;2023-08-20T15:21:00;29.81;35.59
66594;DHT22;53450;42.584;23.366;2023-08-20T15:23:28;29.92;34.14
66594;DHT22;53450;42.584;23.366;2023-08-20T15:25:56;29.95;35.26
66594;DHT22;53450;42.584;23.366;2023-08-20T15:28:22;29.89;35.43
66594;DHT22;53450;42.584;23.366;2023-08-20T15:30:52;29.77;35.29
66594;DHT22;53450;42.584;23.366;2023-08-20T15:33:18;29.49;35.59
66594;DHT22;53450;42.584;23.366;2023-08-20T15:35:45;29.49;35.85
66594;DHT22;53450;42.584;23.366;2023-08-20T15:38:22;29.46;36.11